sensor_id;sensor_type;location;lat;lon;timestamp;pressure;altitude;pressure_sealevel;temperature;humidity
60371;BME280;48550;40.588;49.684;2022-07-10T00:00:12;100711.59;;;21.16;56.04
60371;BME280;48550;40.588;49.684;2022-07-10T00:02:39;100707.78;;;21.17;56.34
60371;BME280;48550;40.588;49.684;2022-07-10T00:05:05;100702.75;;;21.24;53.77
60371;BME280;48550;40.588;49.684;2022-07-10T00:07:31;100714.47;;;21.39;53.02
60371;BME280;48550;40.588;49.684;2022-07-10T00:09:57;100705.88;;;21.59;53.04
60371;BME280;48550;40.588;49.684;2022-07-10T00:12:23;100704.03;;;21.68;54.82
60371;BME280;48550;40.588;49.684;2022-07-10T00:14:49;100712.78;;;21.79;55.59
60371;BME280;48550;40.588;49.684;2022-07-10T00:17:14;100714.63;;;21.70;55.73
60371;BME280;48550;40.588;49.684;2022-07-10T00:19:40;100712.53;;;21.67;59.48
60371;BME280;48550;40.588;49.684;2022-07-10T00:22:06;100714.13;;;21.68;60.77
60371;BME280;48550;40.588;49.684;2022-07-10T00:24:32;100708.75;;;21.76;63.53
60371;BME280;48550;40.588;49.684;2022-07-10T00:26:58;100708.03;;;21.84;64.65
60371;BME280;48550;40.588;49.684;2022-07-10T00:29:24;100703.06;;;21.86;64.60
60371;BME280;48550;40.588;49.684;2022-07-10T00:31:50;100706.91;;;21.85;64.40
60371;BME280;48550;40.588;49.684;2022-07-10T00:34:15;100696.97;;;21.89;62.93
60371;BME280;48550;40.588;49.684;2022-07-10T00:36:41;100694.50;;;22.02;62.23
60371;BME280;48550;40.588;49.684;2022-07-10T00:39:07;100696.34;;;21.93;62.40
60371;BME280;48550;40.588;49.684;2022-07-10T00:41:33;100703.78;;;21.78;63.80
60371;BME280;48550;40.588;49.684;2022-07-10T00:44:00;100695.63;;;21.65;63.09
60371;BME280;48550;40.588;49.684;2022-07-10T00:46:27;100705.53;;;21.74;61.99
60371;BME280;48550;40.588;49.684;2022-07-10T00:48:54;100700.94;;;21.83;63.29
60371;BME280;48550;40.588;49.684;2022-07-10T00:51:21;100706.31;;;21.75;63.75
60371;BME280;48550;40.588;49.684;2022-07-10T00:53:48;100700.66;;;21.71;63.80
60371;BME280;48550;40.588;49.684;2022-07-10T00:56:19;100706.56;;;21.65;64.87
60371;BME280;48550;40.588;49.684;2022-07-10T00:58:46;100696.84;;;21.59;65.37
60371;BME280;48550;40.588;49.684;2022-07-10T01:01:13;100694.44;;;21.57;64.10
60371;BME280;48550;40.588;49.684;2022-07-10T01:03:39;100685.72;;;21.55;63.77
60371;BME280;48550;40.588;49.684;2022-07-10T01:06:05;100692.22;;;21.59;65.50
60371;BME280;48550;40.588;49.684;2022-07-10T01:08:32;100696.56;;;21.46;65.04
60371;BME280;48550;40.588;49.684;2022-07-10T01:10:58;100694.84;;;21.37;65.88
60371;BME280;48550;40.588;49.684;2022-07-10T01:13:24;100702.53;;;21.35;66.67
60371;BME280;48550;40.588;49.684;2022-07-10T01:15:50;100695.66;;;21.23;66.78
60371;BME280;48550;40.588;49.684;2022-07-10T01:18:16;100704.88;;;21.28;67.86
60371;BME280;48550;40.588;49.684;2022-07-10T01:20:42;100705.16;;;21.26;66.78
60371;BME280;48550;40.588;49.684;2022-07-10T01:23:08;100711.44;;;21.27;66.11
60371;BME280;48550;40.588;49.684;2022-07-10T01:25:34;100718.09;;;21.20;65.93
60371;BME280;48550;40.588;49.684;2022-07-10T01:28:00;100709.38;;;21.18;65.49
60371;BME280;48550;40.588;49.684;2022-07-10T01:30:26;100702.63;;;21.30;63.72
60371;BME280;48550;40.588;49.684;2022-07-10T01:32:52;100713.44;;;21.35;64.06
60371;BME280;48550;40.588;49.684;2022-07-10T01:35:18;100713.44;;;21.35;64.49
60371;BME280;48550;40.588;49.684;2022-07-10T01:37:44;100712.34;;;21.36;65.30
60371;BME280;48550;40.588;49.684;2022-07-10T01:40:11;100706.97;;;21.31;64.16
60371;BME280;48550;40.588;49.684;2022-07-10T01:42:38;100713.03;;;21.41;62.64
60371;BME280;48550;40.588;49.684;2022-07-10T01:45:06;100704.94;;;21.50;63.60
60371;BME280;48550;40.588;49.684;2022-07-10T01:47:32;100703.81;;;21.65;65.45
60371;BME280;48550;40.588;49.684;2022-07-10T01:49:58;100698.25;;;21.70;63.12
60371;BME280;48550;40.588;49.684;2022-07-10T01:52:23;100702.38;;;21.81;63.25
60371;BME280;48550;40.588;49.684;2022-07-10T01:54:49;100692.63;;;21.88;61.30
60371;BME280;48550;40.588;49.684;2022-07-10T01:57:15;100688.22;;;22.01;57.29
60371;BME280;48550;40.588;49.684;2022-07-10T01:59:41;100684.66;;;22.14;58.64
60371;BME280;48550;40.588;49.684;2022-07-10T02:02:07;100700.63;;;22.21;58.82
60371;BME280;48550;40.588;49.684;2022-07-10T02:04:34;100696.16;;;22.25;59.18
60371;BME280;48550;40.588;49.684;2022-07-10T02:07:09;100700.91;;;22.33;59.91
60371;BME280;48550;40.588;49.684;2022-07-10T02:09:37;100697.53;;;22.36;59.14
60371;BME280;48550;40.588;49.684;2022-07-10T02:12:05;100695.34;;;22.47;58.49
60371;BME280;48550;40.588;49.684;2022-07-10T02:14:31;100694.28;;;22.57;59.64
60371;BME280;48550;40.588;49.684;2022-07-10T02:16:57;100691.47;;;22.70;55.94
60371;BME280;48550;40.588;49.684;2022-07-10T02:19:23;100689.28;;;22.81;54.39
60371;BME280;48550;40.588;49.684;2022-07-10T02:21:49;100684.97;;;22.89;54.15
60371;BME280;48550;40.588;49.684;2022-07-10T02:24:15;100687.91;;;23.01;53.52
60371;BME280;48550;40.588;49.684;2022-07-10T02:26:41;100689.44;;;23.16;53.88
60371;BME280;48550;40.588;49.684;2022-07-10T02:29:06;100687.22;;;23.26;53.84
60371;BME280;48550;40.588;49.684;2022-07-10T02:31:32;100684.34;;;23.40;50.36
60371;BME280;48550;40.588;49.684;2022-07-10T02:34:03;100684.19;;;23.54;48.82
60371;BME280;48550;40.588;49.684;2022-07-10T02:36:28;100690.06;;;23.69;48.97
60371;BME280;48550;40.588;49.684;2022-07-10T02:38:54;100678.47;;;23.81;49.29
60371;BME280;48550;40.588;49.684;2022-07-10T02:41:20;100689.94;;;23.92;47.43
60371;BME280;48550;40.588;49.684;2022-07-10T02:43:45;100687.34;;;24.04;46.07
60371;BME280;48550;40.588;49.684;2022-07-10T02:46:11;100683.13;;;24.15;45.38
60371;BME280;48550;40.588;49.684;2022-07-10T02:48:37;100678.94;;;24.26;44.48
60371;BME280;48550;40.588;49.684;2022-07-10T02:51:02;100683.28;;;24.45;45.62
60371;BME280;48550;40.588;49.684;2022-07-10T02:53:28;100682.94;;;24.55;43.90
60371;BME280;48550;40.588;49.684;2022-07-10T02:55:54;100679.19;;;24.68;44.05
60371;BME280;48550;40.588;49.684;2022-07-10T02:58:20;100687.56;;;24.80;42.11
60371;BME280;48550;40.588;49.684;2022-07-10T03:00:45;100688.94;;;24.95;41.86
60371;BME280;48550;40.588;49.684;2022-07-10T03:03:11;100685.66;;;25.10;41.63
60371;BME280;48550;40.588;49.684;2022-07-10T03:05:37;100677.50;;;25.31;40.97
60371;BME280;48550;40.588;49.684;2022-07-10T03:08:03;100685.44;;;25.53;42.07
60371;BME280;48550;40.588;49.684;2022-07-10T03:10:29;100688.94;;;25.62;40.66
60371;BME280;48550;40.588;49.684;2022-07-10T03:12:55;100687.00;;;25.84;40.93
60371;BME280;48550;40.588;49.684;2022-07-10T03:15:20;100683.47;;;26.04;40.03
60371;BME280;48550;40.588;49.684;2022-07-10T03:17:46;100672.72;;;26.11;39.70
60371;BME280;48550;40.588;49.684;2022-07-10T03:20:12;100682.84;;;26.19;40.03
60371;BME280;48550;40.588;49.684;2022-07-10T03:22:38;100681.75;;;26.33;38.71
60371;BME280;48550;40.588;49.684;2022-07-10T03:25:04;100680.19;;;26.44;39.71
60371;BME280;48550;40.588;49.684;2022-07-10T03:27:30;100682.53;;;26.66;39.00
60371;BME280;48550;40.588;49.684;2022-07-10T03:29:56;100687.84;;;26.96;37.94
60371;BME280;48550;40.588;49.684;2022-07-10T03:32:22;100686.63;;;27.94;36.30
60371;BME280;48550;40.588;49.684;2022-07-10T03:34:47;100682.28;;;29.79;33.99
60371;BME280;48550;40.588;49.684;2022-07-10T03:37:13;100684.41;;;30.24;33.50
60371;BME280;48550;40.588;49.684;2022-07-10T03:39:39;100686.41;;;31.38;31.45
60371;BME280;48550;40.588;49.684;2022-07-10T03:42:05;100684.75;;;33.01;27.86
60371;BME280;48550;40.588;49.684;2022-07-10T03:44:31;100683.09;;;34.27;26.28
60371;BME280;48550;40.588;49.684;2022-07-10T03:46:57;100695.53;;;34.76;25.73
60371;BME280;48550;40.588;49.684;2022-07-10T03:49:23;100691.09;;;34.36;25.43
60371;BME280;48550;40.588;49.684;2022-07-10T03:51:49;100690.19;;;34.14;25.03
60371;BME280;48550;40.588;49.684;2022-07-10T03:54:15;100693.53;;;34.66;23.41
60371;BME280;48550;40.588;49.684;2022-07-10T03:56:41;100683.56;;;34.51;23.70
60371;BME280;48550;40.588;49.684;2022-07-10T03:59:25;100688.03;;;33.75;25.08
60371;BME280;48550;40.588;49.684;2022-07-10T04:01:50;100696.22;;;32.55;26.27
60371;BME280;48550;40.588;49.684;2022-07-10T04:04:16;100689.81;;;32.47;26.71
60371;BME280;48550;40.588;49.684;2022-07-10T04:06:42;100687.03;;;32.84;25.21
60371;BME280;48550;40.588;49.684;2022-07-10T04:09:08;100694.28;;;34.34;23.52
60371;BME280;48550;40.588;49.684;2022-07-10T04:11:33;100689.81;;;35.93;22.35
60371;BME280;48550;40.588;49.684;2022-07-10T04:13:59;100695.53;;;37.01;20.84
60371;BME280;48550;40.588;49.684;2022-07-10T04:16:25;100694.28;;;37.84;19.81
60371;BME280;48550;40.588;49.684;2022-07-10T04:18:51;100693.06;;;38.19;19.38
60371;BME280;48550;40.588;49.684;2022-07-10T04:21:17;100687.13;;;38.40;19.12
60371;BME280;48550;40.588;49.684;2022-07-10T04:23:42;100695.16;;;39.16;18.19
60371;BME280;48550;40.588;49.684;2022-07-10T04:26:08;100685.28;;;39.90;17.32
60371;BME280;48550;40.588;49.684;2022-07-10T04:28:34;100692.03;;;40.13;17.00
60371;BME280;48550;40.588;49.684;2022-07-10T04:30:59;100683.09;;;40.38;16.91
60371;BME280;48550;40.588;49.684;2022-07-10T04:33:25;100685.91;;;40.70;17.05
60371;BME280;48550;40.588;49.684;2022-07-10T04:35:51;100686.66;;;40.22;16.63
60371;BME280;48550;40.588;49.684;2022-07-10T04:38:17;100684.94;;;40.44;16.83
60371;BME280;48550;40.588;49.684;2022-07-10T04:40:43;100675.63;;;40.96;16.54
60371;BME280;48550;40.588;49.684;2022-07-10T04:43:08;100683.28;;;40.79;15.84
60371;BME280;48550;40.588;49.684;2022-07-10T04:45:36;100680.56;;;40.92;15.90
60371;BME280;48550;40.588;49.684;2022-07-10T04:48:04;100678.69;;;40.69;17.71
60371;BME280;48550;40.588;49.684;2022-07-10T04:50:30;100678.00;;;40.98;17.60
60371;BME280;48550;40.588;49.684;2022-07-10T04:52:57;100670.75;;;39.95;17.55
60371;BME280;48550;40.588;49.684;2022-07-10T04:55:23;100674.97;;;40.23;17.55
60371;BME280;48550;40.588;49.684;2022-07-10T04:57:48;100665.84;;;39.80;17.58
60371;BME280;48550;40.588;49.684;2022-07-10T05:00:15;100663.44;;;39.38;18.24
60371;BME280;48550;40.588;49.684;2022-07-10T05:02:41;100672.06;;;39.08;19.18
60371;BME280;48550;40.588;49.684;2022-07-10T05:05:07;100671.38;;;39.44;19.70
60371;BME280;48550;40.588;49.684;2022-07-10T05:07:33;100662.50;;;38.28;19.32
60371;BME280;48550;40.588;49.684;2022-07-10T05:09:58;100666.78;;;38.63;19.14
60371;BME280;48550;40.588;49.684;2022-07-10T05:12:24;100670.13;;;39.01;20.25
60371;BME280;48550;40.588;49.684;2022-07-10T05:14:50;100670.69;;;38.42;23.16
60371;BME280;48550;40.588;49.684;2022-07-10T05:17:15;100668.06;;;38.55;22.43
60371;BME280;48550;40.588;49.684;2022-07-10T05:19:43;100680.63;;;38.47;24.33
60371;BME280;48550;40.588;49.684;2022-07-10T05:22:08;100681.81;;;37.13;26.64
60371;BME280;48550;40.588;49.684;2022-07-10T05:24:35;100676.13;;;37.28;26.08
60371;BME280;48550;40.588;49.684;2022-07-10T05:27:01;100686.41;;;36.93;26.99
60371;BME280;48550;40.588;49.684;2022-07-10T05:29:27;100676.63;;;37.12;27.65
60371;BME280;48550;40.588;49.684;2022-07-10T05:31:53;100683.91;;;35.59;31.78
60371;BME280;48550;40.588;49.684;2022-07-10T05:34:19;100682.28;;;35.76;32.42
60371;BME280;48550;40.588;49.684;2022-07-10T05:36:44;100669.94;;;35.66;32.47
60371;BME280;48550;40.588;49.684;2022-07-10T05:39:10;100675.78;;;36.04;32.19
60371;BME280;48550;40.588;49.684;2022-07-10T05:41:36;100674.75;;;36.50;30.99
60371;BME280;48550;40.588;49.684;2022-07-10T05:44:02;100681.16;;;36.47;30.55
60371;BME280;48550;40.588;49.684;2022-07-10T05:46:28;100681.78;;;36.69;30.94
60371;BME280;48550;40.588;49.684;2022-07-10T05:48:54;100677.88;;;36.59;31.16
60371;BME280;48550;40.588;49.684;2022-07-10T05:51:19;100678.81;;;36.94;30.26
60371;BME280;48550;40.588;49.684;2022-07-10T05:53:45;100672.56;;;36.09;32.43
60371;BME280;48550;40.588;49.684;2022-07-10T05:56:11;100666.88;;;35.11;33.82
60371;BME280;48550;40.588;49.684;2022-07-10T05:58:37;100671.91;;;35.84;33.60
60371;BME280;48550;40.588;49.684;2022-07-10T06:01:03;100666.16;;;36.12;33.87
60371;BME280;48550;40.588;49.684;2022-07-10T06:03:29;100657.50;;;35.89;33.22
60371;BME280;48550;40.588;49.684;2022-07-10T06:05:54;100662.06;;;36.31;31.86
60371;BME280;48550;40.588;49.684;2022-07-10T06:08:20;100669.94;;;35.74;30.90
60371;BME280;48550;40.588;49.684;2022-07-10T06:10:46;100671.53;;;35.67;30.53
60371;BME280;48550;40.588;49.684;2022-07-10T06:13:12;100674.75;;;35.52;34.50
60371;BME280;48550;40.588;49.684;2022-07-10T06:15:38;100660.09;;;34.87;37.14
60371;BME280;48550;40.588;49.684;2022-07-10T06:18:04;100666.06;;;35.18;38.13
60371;BME280;48550;40.588;49.684;2022-07-10T06:20:30;100665.66;;;35.12;39.21
60371;BME280;48550;40.588;49.684;2022-07-10T06:22:57;100663.66;;;35.27;38.66
60371;BME280;48550;40.588;49.684;2022-07-10T06:25:23;100664.78;;;35.58;38.64
60371;BME280;48550;40.588;49.684;2022-07-10T06:27:49;100661.25;;;35.29;38.19
60371;BME280;48550;40.588;49.684;2022-07-10T06:30:15;100666.88;;;35.00;39.26
60371;BME280;48550;40.588;49.684;2022-07-10T06:32:41;100658.91;;;34.99;39.07
60371;BME280;48550;40.588;49.684;2022-07-10T06:35:07;100653.34;;;35.02;38.85
60371;BME280;48550;40.588;49.684;2022-07-10T06:37:34;100652.09;;;34.79;39.09
60371;BME280;48550;40.588;49.684;2022-07-10T06:40:00;100649.72;;;34.66;39.76
60371;BME280;48550;40.588;49.684;2022-07-10T06:42:25;100652.09;;;34.61;39.50
60371;BME280;48550;40.588;49.684;2022-07-10T06:44:51;100652.88;;;34.36;42.15
60371;BME280;48550;40.588;49.684;2022-07-10T06:47:19;100659.59;;;34.25;42.55
60371;BME280;48550;40.588;49.684;2022-07-10T06:50:08;100652.91;;;34.44;41.50
60371;BME280;48550;40.588;49.684;2022-07-10T06:52:35;100653.34;;;34.95;40.59
60371;BME280;48550;40.588;49.684;2022-07-10T06:55:02;100650.53;;;35.10;39.97
60371;BME280;48550;40.588;49.684;2022-07-10T06:57:29;100660.47;;;34.75;41.95
60371;BME280;48550;40.588;49.684;2022-07-10T06:59:55;100655.69;;;34.58;41.33
60371;BME280;48550;40.588;49.684;2022-07-10T07:02:21;100646.53;;;34.54;41.97
60371;BME280;48550;40.588;49.684;2022-07-10T07:04:46;100655.41;;;33.69;43.86
60371;BME280;48550;40.588;49.684;2022-07-10T07:07:13;100649.13;;;33.83;44.68
60371;BME280;48550;40.588;49.684;2022-07-10T07:09:40;100658.31;;;33.94;45.71
60371;BME280;48550;40.588;49.684;2022-07-10T07:12:06;100661.47;;;33.89;44.18
60371;BME280;48550;40.588;49.684;2022-07-10T07:14:32;100659.66;;;33.45;45.07
60371;BME280;48550;40.588;49.684;2022-07-10T07:16:58;100651.38;;;33.56;44.98
60371;BME280;48550;40.588;49.684;2022-07-10T07:19:29;100644.69;;;33.71;44.17
60371;BME280;48550;40.588;49.684;2022-07-10T07:22:18;100652.25;;;33.74;43.92
60371;BME280;48550;40.588;49.684;2022-07-10T07:25:03;100647.22;;;34.19;41.65
60371;BME280;48550;40.588;49.684;2022-07-10T07:27:28;100647.25;;;34.22;43.03
60371;BME280;48550;40.588;49.684;2022-07-10T07:29:54;100642.53;;;34.40;42.16
60371;BME280;48550;40.588;49.684;2022-07-10T07:32:20;100640.03;;;33.96;44.29
60371;BME280;48550;40.588;49.684;2022-07-10T07:34:46;100636.81;;;33.87;42.66
60371;BME280;48550;40.588;49.684;2022-07-10T07:37:12;100637.72;;;34.30;41.29
60371;BME280;48550;40.588;49.684;2022-07-10T07:39:37;100631.63;;;33.16;41.24
60371;BME280;48550;40.588;49.684;2022-07-10T07:42:03;100633.13;;;33.00;43.00
60371;BME280;48550;40.588;49.684;2022-07-10T07:44:30;100641.75;;;32.84;45.22
60371;BME280;48550;40.588;49.684;2022-07-10T07:46:56;100643.56;;;32.25;46.40
60371;BME280;48550;40.588;49.684;2022-07-10T07:49:22;100638.47;;;31.97;48.98
60371;BME280;48550;40.588;49.684;2022-07-10T07:51:47;100630.25;;;31.74;50.11
60371;BME280;48550;40.588;49.684;2022-07-10T07:54:14;100628.03;;;31.87;49.63
60371;BME280;48550;40.588;49.684;2022-07-10T07:56:40;100636.03;;;30.83;52.00
60371;BME280;48550;40.588;49.684;2022-07-10T07:59:06;100628.25;;;30.23;54.95
60371;BME280;48550;40.588;49.684;2022-07-10T08:01:32;100638.38;;;29.96;57.12
60371;BME280;48550;40.588;49.684;2022-07-10T08:03:58;100628.25;;;29.85;57.15
60371;BME280;48550;40.588;49.684;2022-07-10T08:06:24;100631.16;;;29.72;57.27
60371;BME280;48550;40.588;49.684;2022-07-10T08:08:49;100635.34;;;29.82;58.71
60371;BME280;48550;40.588;49.684;2022-07-10T08:11:16;100618.38;;;29.84;57.93
60371;BME280;48550;40.588;49.684;2022-07-10T08:13:42;100622.56;;;29.58;60.23
60371;BME280;48550;40.588;49.684;2022-07-10T08:16:08;100610.41;;;29.44;61.22
60371;BME280;48550;40.588;49.684;2022-07-10T08:18:34;100623.59;;;29.50;61.75
60371;BME280;48550;40.588;49.684;2022-07-10T08:21:01;100614.13;;;29.51;62.89
60371;BME280;48550;40.588;49.684;2022-07-10T08:23:26;100621.34;;;29.75;62.09
60371;BME280;48550;40.588;49.684;2022-07-10T08:25:52;100614.78;;;29.64;59.68
60371;BME280;48550;40.588;49.684;2022-07-10T08:28:18;100608.16;;;29.68;61.89
60371;BME280;48550;40.588;49.684;2022-07-10T08:30:44;100609.56;;;29.78;57.75
60371;BME280;48550;40.588;49.684;2022-07-10T08:33:10;100610.47;;;30.24;56.75
60371;BME280;48550;40.588;49.684;2022-07-10T08:35:36;100609.63;;;30.66;50.98
60371;BME280;48550;40.588;49.684;2022-07-10T08:38:01;100600.50;;;31.15;47.80
60371;BME280;48550;40.588;49.684;2022-07-10T08:40:34;100595.41;;;31.77;32.40
60371;BME280;48550;40.588;49.684;2022-07-10T08:43:04;100594.72;;;32.68;27.95
60371;BME280;48550;40.588;49.684;2022-07-10T08:45:31;100592.13;;;33.55;26.07
60371;BME280;48550;40.588;49.684;2022-07-10T08:48:02;100598.25;;;34.00;24.94
60371;BME280;48550;40.588;49.684;2022-07-10T08:50:37;100593.94;;;34.31;24.91
60371;BME280;48550;40.588;49.684;2022-07-10T08:53:13;100597.56;;;34.60;23.99
60371;BME280;48550;40.588;49.684;2022-07-10T08:55:39;100585.59;;;34.63;23.62
60371;BME280;48550;40.588;49.684;2022-07-10T08:58:05;100593.97;;;34.91;23.27
60371;BME280;48550;40.588;49.684;2022-07-10T09:00:33;100594.75;;;35.06;23.17
60371;BME280;48550;40.588;49.684;2022-07-10T09:02:59;100594.38;;;34.93;23.26
60371;BME280;48550;40.588;49.684;2022-07-10T09:05:26;100590.38;;;34.87;23.22
60371;BME280;48550;40.588;49.684;2022-07-10T09:07:52;100584.41;;;34.89;23.34
60371;BME280;48550;40.588;49.684;2022-07-10T09:10:20;100591.56;;;35.00;23.14
60371;BME280;48550;40.588;49.684;2022-07-10T09:12:57;100583.56;;;35.13;23.23
60371;BME280;48550;40.588;49.684;2022-07-10T09:15:28;100580.38;;;35.15;23.37
60371;BME280;48550;40.588;49.684;2022-07-10T09:18:02;100571.56;;;35.23;22.93
60371;BME280;48550;40.588;49.684;2022-07-10T09:20:37;100579.81;;;35.59;23.49
60371;BME280;48550;40.588;49.684;2022-07-10T09:25:43;100574.66;;;35.54;22.85
60371;BME280;48550;40.588;49.684;2022-07-10T09:28:09;100585.00;;;35.67;23.16
60371;BME280;48550;40.588;49.684;2022-07-10T09:30:37;100574.56;;;35.79;22.04
60371;BME280;48550;40.588;49.684;2022-07-10T09:33:22;100580.16;;;35.82;22.57
60371;BME280;48550;40.588;49.684;2022-07-10T09:36:10;100584.56;;;35.73;22.43
60371;BME280;48550;40.588;49.684;2022-07-10T09:41:19;100574.19;;;35.73;21.44
60371;BME280;48550;40.588;49.684;2022-07-10T09:43:54;100573.00;;;35.71;20.73
60371;BME280;48550;40.588;49.684;2022-07-10T09:46:28;100570.66;;;35.55;21.11
60371;BME280;48550;40.588;49.684;2022-07-10T09:49:07;100569.88;;;35.54;21.64
60371;BME280;48550;40.588;49.684;2022-07-10T09:51:42;100565.84;;;35.70;20.96
60371;BME280;48550;40.588;49.684;2022-07-10T09:54:09;100560.59;;;35.82;21.34
60371;BME280;48550;40.588;49.684;2022-07-10T09:56:48;100566.53;;;35.88;21.96
60371;BME280;48550;40.588;49.684;2022-07-10T09:59:19;100568.56;;;35.84;21.38
60371;BME280;48550;40.588;49.684;2022-07-10T10:01:49;100549.44;;;35.75;20.52
60371;BME280;48550;40.588;49.684;2022-07-10T10:04:19;100568.59;;;35.73;20.25
60371;BME280;48550;40.588;49.684;2022-07-10T10:06:51;100562.69;;;35.53;20.34
60371;BME280;48550;40.588;49.684;2022-07-10T10:09:32;100566.38;;;35.36;20.11
60371;BME280;48550;40.588;49.684;2022-07-10T10:12:05;100569.56;;;35.31;20.09
60371;BME280;48550;40.588;49.684;2022-07-10T10:14:33;100568.78;;;35.27;20.36
60371;BME280;48550;40.588;49.684;2022-07-10T10:17:00;100567.16;;;35.37;19.99
60371;BME280;48550;40.588;49.684;2022-07-10T10:19:29;100572.34;;;35.31;19.95
60371;BME280;48550;40.588;49.684;2022-07-10T10:22:14;100562.81;;;35.21;20.59
60371;BME280;48550;40.588;49.684;2022-07-10T10:24:41;100567.97;;;35.37;20.34
60371;BME280;48550;40.588;49.684;2022-07-10T10:27:08;100570.31;;;35.46;20.49
60371;BME280;48550;40.588;49.684;2022-07-10T10:29:35;100566.38;;;35.32;21.48
60371;BME280;48550;40.588;49.684;2022-07-10T10:32:02;100564.38;;;35.40;21.65
60371;BME280;48550;40.588;49.684;2022-07-10T10:34:42;100570.75;;;35.37;20.08
60371;BME280;48550;40.588;49.684;2022-07-10T10:37:40;100561.97;;;35.42;20.40
60371;BME280;48550;40.588;49.684;2022-07-10T10:40:31;100559.19;;;35.39;20.51
60371;BME280;48550;40.588;49.684;2022-07-10T10:42:58;100574.34;;;35.34;21.18
60371;BME280;48550;40.588;49.684;2022-07-10T10:45:30;100569.59;;;35.17;21.69
60371;BME280;48550;40.588;49.684;2022-07-10T10:48:10;100573.19;;;35.17;21.76
60371;BME280;48550;40.588;49.684;2022-07-10T10:53:23;100565.25;;;35.12;21.59
60371;BME280;48550;40.588;49.684;2022-07-10T10:58:45;100564.91;;;34.96;21.88
60371;BME280;48550;40.588;49.684;2022-07-10T11:06:39;100562.13;;;34.42;23.23
60371;BME280;48550;40.588;49.684;2022-07-10T11:09:28;100553.75;;;34.21;23.73
60371;BME280;48550;40.588;49.684;2022-07-10T11:12:07;100555.34;;;34.22;23.01
60371;BME280;48550;40.588;49.684;2022-07-10T11:14:44;100560.13;;;34.22;23.24
60371;BME280;48550;40.588;49.684;2022-07-10T11:17:10;100560.47;;;34.06;23.03
60371;BME280;48550;40.588;49.684;2022-07-10T11:19:36;100564.84;;;34.07;22.67
60371;BME280;48550;40.588;49.684;2022-07-10T11:25:36;100565.28;;;34.27;22.19
60371;BME280;48550;40.588;49.684;2022-07-10T11:28:05;100555.69;;;34.14;21.44
60371;BME280;48550;40.588;49.684;2022-07-10T11:30:50;100562.88;;;34.18;21.32
60371;BME280;48550;40.588;49.684;2022-07-10T11:33:16;100551.72;;;34.07;20.68
60371;BME280;48550;40.588;49.684;2022-07-10T11:35:46;100557.28;;;34.04;19.49
60371;BME280;48550;40.588;49.684;2022-07-10T11:38:21;100558.88;;;33.98;18.98
60371;BME280;48550;40.588;49.684;2022-07-10T11:40:47;100557.69;;;34.09;19.58
60371;BME280;48550;40.588;49.684;2022-07-10T11:43:13;100548.53;;;34.05;19.62
60371;BME280;48550;40.588;49.684;2022-07-10T11:45:42;100548.13;;;34.10;18.64
60371;BME280;48550;40.588;49.684;2022-07-10T11:48:17;100542.97;;;34.13;18.98
60371;BME280;48550;40.588;49.684;2022-07-10T11:50:43;100547.34;;;34.14;19.55
60371;BME280;48550;40.588;49.684;2022-07-10T11:53:09;100547.34;;;34.14;19.74
60371;BME280;48550;40.588;49.684;2022-07-10T11:55:37;100547.75;;;34.16;19.60
60371;BME280;48550;40.588;49.684;2022-07-10T11:58:13;100549.75;;;34.26;19.11
60371;BME280;48550;40.588;49.684;2022-07-10T12:00:39;100545.38;;;34.21;18.64
60371;BME280;48550;40.588;49.684;2022-07-10T12:03:20;100545.34;;;34.18;18.28
60371;BME280;48550;40.588;49.684;2022-07-10T12:05:47;100549.72;;;34.15;17.97
60371;BME280;48550;40.588;49.684;2022-07-10T12:08:14;100550.94;;;34.14;17.84
60371;BME280;48550;40.588;49.684;2022-07-10T12:10:40;100543.75;;;34.06;18.36
60371;BME280;48550;40.588;49.684;2022-07-10T12:13:09;100541.78;;;34.10;18.13
60371;BME280;48550;40.588;49.684;2022-07-10T12:15:38;100543.38;;;34.07;18.10
60371;BME280;48550;40.588;49.684;2022-07-10T12:18:07;100540.19;;;34.13;18.59
60371;BME280;48550;40.588;49.684;2022-07-10T12:20:34;100545.38;;;34.21;18.52
60371;BME280;48550;40.588;49.684;2022-07-10T12:23:01;100551.72;;;34.18;17.89
60371;BME280;48550;40.588;49.684;2022-07-10T12:25:26;100542.97;;;34.16;17.97
60371;BME280;48550;40.588;49.684;2022-07-10T12:27:57;100545.38;;;34.21;18.32
60371;BME280;48550;40.588;49.684;2022-07-10T12:30:43;100543.00;;;34.23;18.57
60371;BME280;48550;40.588;49.684;2022-07-10T12:33:14;100539.00;;;34.14;18.58
60371;BME280;48550;40.588;49.684;2022-07-10T12:35:56;100543.75;;;34.09;18.48
60371;BME280;48550;40.588;49.684;2022-07-10T12:38:24;100538.97;;;34.06;18.75
60371;BME280;48550;40.588;49.684;2022-07-10T12:40:51;100538.19;;;34.02;18.60
60371;BME280;48550;40.588;49.684;2022-07-10T12:43:31;100542.56;;;34.07;18.87
60371;BME280;48550;40.588;49.684;2022-07-10T12:46:22;100539.78;;;34.10;18.68
60371;BME280;48550;40.588;49.684;2022-07-10T12:49:07;100549.31;;;34.02;18.39
60371;BME280;48550;40.588;49.684;2022-07-10T12:54:06;100551.69;;;33.93;18.73
60371;BME280;48550;40.588;49.684;2022-07-10T12:56:36;100543.75;;;33.95;18.91
60371;BME280;48550;40.588;49.684;2022-07-10T12:59:10;100542.56;;;33.96;19.08
60371;BME280;48550;40.588;49.684;2022-07-10T13:01:44;100544.53;;;33.85;18.78
60371;BME280;48550;40.588;49.684;2022-07-10T13:04:11;100549.66;;;33.79;18.70
60371;BME280;48550;40.588;49.684;2022-07-10T13:06:38;100542.09;;;33.69;18.54